Time;durP1;ratioP1;P1;durP2;ratioP2;P2;SDS_P1;SDS_P2;PMS_P1;PMS_P2;Temp;Humidity;BMP_temperature;BMP_pressure;BME280_temperature;BME280_humidity;BME280_pressure;Samples;Min_cycle;Max_cycle;Signal;HPM_P1;HPM_P2
2023/11/26 00:01:02;;;;;;;4.80;2.27;;;;;;;;;;4930871;28;20249;-87
2023/11/26 00:03:30;;;;;;;2.50;2.20;;;;;;;;;;4943172;28;20277;-87
2023/11/26 00:05:55;;;;;;;2.23;2.03;;;;;;;;;;4929654;28;20608;-86
2023/11/26 00:08:21;;;;;;;2.17;1.90;;;;;;;;;;4944981;28;20223;-83
2023/11/26 00:10:51;;;;;;;3.23;2.10;;;;;;;;;;4963647;28;20253;-85
2023/11/26 00:13:21;;;;;;;3.00;2.07;;;;;;;;;;4945121;28;20233;-85
2023/11/26 00:15:47;;;;;;;3.80;2.33;;;;;;;;;;4919418;28;20246;-85
2023/11/26 00:18:12;;;;;;;4.10;2.57;;;;;;;;;;4933649;28;20277;-80
2023/11/26 00:20:38;;;;;;;2.30;2.07;;;;;;;;;;4950545;28;20227;-87
2023/11/26 00:23:03;;;;;;;2.40;2.20;;;;;;;;;;4945376;28;20236;-85
2023/11/26 00:25:29;;;;;;;3.67;2.17;;;;;;;;;;4964565;28;20238;-84
2023/11/26 00:27:54;;;;;;;2.07;1.87;;;;;;;;;;4947704;28;20244;-86
2023/11/26 00:30:20;;;;;;;6.40;2.70;;;;;;;;;;4967009;28;20280;-86
2023/11/26 00:32:48;;;;;;;3.13;2.37;;;;;;;;;;4938563;28;20268;-84
2023/11/26 00:35:14;;;;;;;2.50;2.20;;;;;;;;;;4951137;28;20310;-82
2023/11/26 00:37:42;;;;;;;2.47;2.13;;;;;;;;;;4952412;28;20310;-87
2023/11/26 00:40:12;;;;;;;4.17;2.77;;;;;;;;;;4934545;28;20637;-86
2023/11/26 00:42:38;;;;;;;2.50;2.30;;;;;;;;;;4943478;28;20230;-85
2023/11/26 00:45:05;;;;;;;3.30;2.93;;;;;;;;;;4932101;28;20219;-87
2023/11/26 00:47:30;;;;;;;6.70;2.53;;;;;;;;;;4954174;28;20272;-87
2023/11/26 00:50:03;;;;;;;5.57;2.63;;;;;;;;;;4941436;28;20218;-86
2023/11/26 00:52:32;;;;;;;7.03;2.30;;;;;;;;;;4962310;28;20313;-86
2023/11/26 00:54:57;;;;;;;3.30;2.53;;;;;;;;;;4933703;28;20270;-86
2023/11/26 00:57:27;;;;;;;5.07;2.47;;;;;;;;;;4965963;28;20214;-85
2023/11/26 00:59:53;;;;;;;2.30;2.03;;;;;;;;;;4920559;28;20237;-85
2023/11/26 01:02:23;;;;;;;2.97;2.20;;;;;;;;;;4935347;28;20207;-81
2023/11/26 01:04:50;;;;;;;2.40;1.97;;;;;;;;;;4965069;28;20226;-80
2023/11/26 01:07:16;;;;;;;2.97;2.27;;;;;;;;;;4962185;28;20203;-82
2023/11/26 01:09:42;;;;;;;4.93;2.07;;;;;;;;;;4972368;28;20225;-80
2023/11/26 01:12:08;;;;;;;3.20;2.47;;;;;;;;;;4979809;28;20236;-84
2023/11/26 01:14:33;;;;;;;5.87;2.33;;;;;;;;;;4964017;28;20218;-82
2023/11/26 01:17:01;;;;;;;2.97;2.27;;;;;;;;;;4958937;28;20218;-82
2023/11/26 01:19:27;;;;;;;2.67;2.33;;;;;;;;;;4974853;28;20215;-83
2023/11/26 01:21:55;;;;;;;2.67;2.30;;;;;;;;;;4958981;28;20237;-86
2023/11/26 01:24:20;;;;;;;3.33;2.37;;;;;;;;;;4976544;28;20223;-85
2023/11/26 01:26:46;;;;;;;3.03;2.63;;;;;;;;;;4930926;28;20220;-86
2023/11/26 01:29:11;;;;;;;3.67;2.03;;;;;;;;;;4948544;28;20225;-86
2023/11/26 01:31:37;;;;;;;3.13;2.20;;;;;;;;;;4935114;28;20237;-83
2023/11/26 01:34:03;;;;;;;3.67;2.60;;;;;;;;;;4962855;28;20227;-85
2023/11/26 01:36:28;;;;;;;2.70;2.43;;;;;;;;;;4947077;28;20222;-83
2023/11/26 01:38:55;;;;;;;4.83;2.57;;;;;;;;;;4923687;28;20225;-85
2023/11/26 01:41:20;;;;;;;4.87;2.53;;;;;;;;;;4937150;28;20237;-84
2023/11/26 01:43:46;;;;;;;2.87;2.57;;;;;;;;;;4913162;29;20219;-85
2023/11/26 01:46:14;;;;;;;4.70;3.10;;;;;;;;;;4950597;28;20268;-86
2023/11/26 01:48:43;;;;;;;4.57;3.23;;;;;;;;;;4951238;28;20226;-87
2023/11/26 01:51:15;;;;;;;3.87;2.90;;;;;;;;;;4931483;28;20214;-87
2023/11/26 01:53:46;;;;;;;3.60;2.80;;;;;;;;;;4937677;28;20386;-86
2023/11/26 01:56:14;;;;;;;3.60;2.97;;;;;;;;;;4951104;28;20503;-85
2023/11/26 01:58:42;;;;;;;6.53;3.70;;;;;;;;;;4949132;28;20222;-86
2023/11/26 02:01:08;;;;;;;3.07;2.67;;;;;;;;;;4936867;28;20277;-85
2023/11/26 02:03:37;;;;;;;3.53;2.97;;;;;;;;;;4937096;28;20283;-87
2023/11/26 02:06:03;;;;;;;3.27;2.70;;;;;;;;;;4947379;28;20273;-87
2023/11/26 02:08:29;;;;;;;2.83;2.63;;;;;;;;;;4961422;28;20223;-84
2023/11/26 02:10:59;;;;;;;7.07;3.17;;;;;;;;;;4955056;28;20299;-85
2023/11/26 02:13:25;;;;;;;4.10;3.10;;;;;;;;;;4977707;28;20252;-84
2023/11/26 02:15:51;;;;;;;3.00;2.70;;;;;;;;;;4969992;28;20215;-84
2023/11/26 02:18:19;;;;;;;5.60;3.10;;;;;;;;;;4969143;28;20266;-84
2023/11/26 02:20:47;;;;;;;3.17;2.93;;;;;;;;;;4942246;28;20226;-87
2023/11/26 02:23:15;;;;;;;3.33;3.07;;;;;;;;;;4938178;28;20225;-87
2023/11/26 02:25:40;;;;;;;3.17;2.87;;;;;;;;;;4968717;28;20277;-88
2023/11/26 02:28:10;;;;;;;4.73;3.43;;;;;;;;;;4932066;29;20219;-84
2023/11/26 02:30:35;;;;;;;4.50;3.37;;;;;;;;;;4924487;28;20257;-87
2023/11/26 02:33:01;;;;;;;4.70;3.53;;;;;;;;;;4931549;28;20214;-86
2023/11/26 02:35:27;;;;;;;6.00;3.17;;;;;;;;;;4932474;28;20253;-86
2023/11/26 02:37:55;;;;;;;3.90;3.10;;;;;;;;;;4939358;28;20222;-86
2023/11/26 02:40:22;;;;;;;4.70;3.50;;;;;;;;;;4932633;28;20222;-88
2023/11/26 02:42:48;;;;;;;4.63;3.13;;;;;;;;;;4960575;28;20222;-86
2023/11/26 02:45:14;;;;;;;4.30;3.43;;;;;;;;;;4942685;28;20240;-88
2023/11/26 02:47:39;;;;;;;3.57;3.20;;;;;;;;;;4938158;28;20232;-86
2023/11/26 02:50:08;;;;;;;4.33;3.07;;;;;;;;;;4925337;28;20226;-86
2023/11/26 02:52:34;;;;;;;4.23;3.47;;;;;;;;;;4918392;28;20244;-86
2023/11/26 02:55:03;;;;;;;5.07;3.13;;;;;;;;;;4949692;29;20306;-86
2023/11/26 02:57:29;;;;;;;6.03;3.63;;;;;;;;;;4926004;28;20245;-84
2023/11/26 02:59:56;;;;;;;4.07;3.43;;;;;;;;;;4950208;28;20735;-86
2023/11/26 03:02:24;;;;;;;4.30;3.90;;;;;;;;;;4947885;28;20580;-86
2023/11/26 03:04:53;;;;;;;5.07;4.60;;;;;;;;;;4950770;28;20658;-86
2023/11/26 03:07:21;;;;;;;8.77;5.47;;;;;;;;;;4931766;28;21040;-85
2023/11/26 03:15:18;;;;;;;4.70;4.23;;;;;;;;;;4973104;28;20236;-85
2023/11/26 03:17:46;;;;;;;7.00;5.70;;;;;;;;;;4926664;28;20608;-85
2023/11/26 03:20:16;;;;;;;7.37;6.50;;;;;;;;;;4946941;28;20223;-85
2023/11/26 03:22:42;;;;;;;7.23;6.23;;;;;;;;;;4933636;28;20377;-87
2023/11/26 03:25:09;;;;;;;4.60;4.20;;;;;;;;;;4931768;28;20649;-86
2023/11/26 03:27:39;;;;;;;5.17;3.70;;;;;;;;;;4934736;28;20233;-86
2023/11/26 03:30:09;;;;;;;4.27;3.87;;;;;;;;;;4925434;29;20237;-86
2023/11/26 03:32:37;;;;;;;6.13;4.40;;;;;;;;;;4945294;28;20245;-87
2023/11/26 03:35:03;;;;;;;6.33;4.80;;;;;;;;;;4933478;28;20699;-86
2023/11/26 03:37:29;;;;;;;4.60;4.10;;;;;;;;;;4958578;28;20222;-87
2023/11/26 03:39:54;;;;;;;5.93;3.57;;;;;;;;;;4918957;28;20258;-87
2023/11/26 03:42:20;;;;;;;4.67;4.10;;;;;;;;;;4937953;28;20944;-87
2023/11/26 03:44:45;;;;;;;7.87;4.63;;;;;;;;;;4951288;28;20254;-86
2023/11/26 03:47:11;;;;;;;5.60;5.07;;;;;;;;;;4941193;28;20256;-85
2023/11/26 03:49:37;;;;;;;5.30;4.80;;;;;;;;;;4938549;28;20695;-87
2023/11/26 03:52:05;;;;;;;6.53;4.80;;;;;;;;;;4935146;28;20222;-86
2023/11/26 03:54:30;;;;;;;5.93;4.30;;;;;;;;;;4933872;28;20225;-87
2023/11/26 03:56:56;;;;;;;4.63;4.33;;;;;;;;;;4969921;28;20214;-86
2023/11/26 04:03:08;;;;;;;6.33;4.57;;;;;;;;;;4971491;28;20226;-86
2023/11/26 04:05:33;;;;;;;5.00;4.50;;;;;;;;;;4940758;28;20692;-85
2023/11/26 04:07:59;;;;;;;9.77;4.27;;;;;;;;;;4939049;28;20704;-86
2023/11/26 04:10:27;;;;;;;5.07;4.67;;;;;;;;;;4941056;28;20221;-86
2023/11/26 04:12:52;;;;;;;5.43;4.93;;;;;;;;;;4955771;28;20222;-86
2023/11/26 04:15:22;;;;;;;6.23;4.67;;;;;;;;;;4933730;28;20225;-85
2023/11/26 04:17:48;;;;;;;9.07;5.10;;;;;;;;;;4936625;28;20226;-86
2023/11/26 04:20:14;;;;;;;5.60;5.03;;;;;;;;;;4936951;28;20640;-86
2023/11/26 04:22:42;;;;;;;5.30;4.80;;;;;;;;;;4946558;28;20230;-86
2023/11/26 04:25:09;;;;;;;8.03;5.33;;;;;;;;;;4954232;28;20214;-82
2023/11/26 04:27:35;;;;;;;5.40;4.90;;;;;;;;;;4957980;28;20238;-83
2023/11/26 04:30:03;;;;;;;7.33;5.37;;;;;;;;;;4940671;28;20225;-86
2023/11/26 04:32:28;;;;;;;7.27;5.40;;;;;;;;;;4935779;29;20281;-88
2023/11/26 04:34:58;;;;;;;5.13;4.73;;;;;;;;;;4956949;28;20230;-86
2023/11/26 04:37:24;;;;;;;7.13;4.97;;;;;;;;;;4937217;28;20233;-88
2023/11/26 04:39:50;;;;;;;7.33;4.60;;;;;;;;;;4931371;28;20235;-85
2023/11/26 04:42:23;;;;;;;6.60;4.80;;;;;;;;;;4924287;28;20253;-87
2023/11/26 04:44:51;;;;;;;5.30;4.80;;;;;;;;;;4938211;28;20314;-86
2023/11/26 04:47:16;;;;;;;6.13;4.73;;;;;;;;;;4934241;28;20245;-87
2023/11/26 04:49:42;;;;;;;5.53;5.03;;;;;;;;;;4936352;28;20234;-85
2023/11/26 04:52:10;;;;;;;6.20;5.60;;;;;;;;;;4941368;28;20250;-85
2023/11/26 04:54:35;;;;;;;5.37;4.87;;;;;;;;;;4948695;29;20989;-86
2023/11/26 04:57:01;;;;;;;5.27;4.77;;;;;;;;;;4934635;28;20687;-86
2023/11/26 04:59:29;;;;;;;6.87;5.10;;;;;;;;;;4935477;28;20698;-85
2023/11/26 05:01:55;;;;;;;5.60;5.10;;;;;;;;;;4955394;28;20230;-85
2023/11/26 05:04:21;;;;;;;5.17;4.73;;;;;;;;;;4949979;28;20315;-86
2023/11/26 05:06:47;;;;;;;5.37;4.87;;;;;;;;;;4962798;28;20317;-85
2023/11/26 05:09:13;;;;;;;5.60;5.10;;;;;;;;;;4941055;28;20228;-84
2023/11/26 05:11:44;;;;;;;5.17;4.77;;;;;;;;;;4950569;28;20241;-85
2023/11/26 05:14:10;;;;;;;5.43;4.93;;;;;;;;;;4945306;28;20354;-87
2023/11/26 05:16:39;;;;;;;5.00;4.60;;;;;;;;;;4932200;29;20596;-86
2023/11/26 05:19:08;;;;;;;5.43;4.83;;;;;;;;;;4934875;28;20279;-85
2023/11/26 05:21:33;;;;;;;6.20;5.03;;;;;;;;;;4952854;28;20909;-86
2023/11/26 05:23:59;;;;;;;5.40;4.90;;;;;;;;;;4932976;28;20235;-85
2023/11/26 05:26:29;;;;;;;6.80;4.83;;;;;;;;;;4935478;28;20222;-86
2023/11/26 05:28:55;;;;;;;5.00;4.50;;;;;;;;;;4933126;28;20234;-87
2023/11/26 05:31:21;;;;;;;5.67;4.93;;;;;;;;;;4938446;28;20225;-86
2023/11/26 05:33:51;;;;;;;5.40;4.90;;;;;;;;;;4953159;28;20293;-86
2023/11/26 05:36:20;;;;;;;7.63;4.53;;;;;;;;;;4946504;28;20710;-85
2023/11/26 05:38:46;;;;;;;5.33;4.87;;;;;;;;;;4917662;28;20234;-87
2023/11/26 05:41:18;;;;;;;5.70;4.70;;;;;;;;;;4938187;28;20213;-87
2023/11/26 05:43:46;;;;;;;5.67;5.03;;;;;;;;;;4938622;28;20239;-86
2023/11/26 05:46:11;;;;;;;5.80;4.80;;;;;;;;;;4938776;28;20215;-88
2023/11/26 05:48:37;;;;;;;7.00;5.13;;;;;;;;;;4936160;28;20222;-85
2023/11/26 05:51:02;;;;;;;6.67;5.20;;;;;;;;;;4933362;28;20244;-86
2023/11/26 05:53:30;;;;;;;5.17;4.63;;;;;;;;;;4932631;29;20226;-87
2023/11/26 05:55:56;;;;;;;5.00;4.50;;;;;;;;;;4958531;28;20235;-85
2023/11/26 05:58:24;;;;;;;5.30;4.80;;;;;;;;;;4950628;28;20245;-87
2023/11/26 06:00:49;;;;;;;5.43;4.93;;;;;;;;;;4927802;28;20763;-87
2023/11/26 06:03:15;;;;;;;6.00;5.50;;;;;;;;;;4972907;28;20222;-84
2023/11/26 06:05:40;;;;;;;8.13;5.17;;;;;;;;;;4964497;28;20226;-88
2023/11/26 06:08:06;;;;;;;5.57;5.17;;;;;;;;;;4930300;28;20222;-87
2023/11/26 06:10:35;;;;;;;5.47;4.97;;;;;;;;;;4964396;28;20225;-85
2023/11/26 06:13:03;;;;;;;5.33;4.87;;;;;;;;;;4968753;28;20222;-88
2023/11/26 06:15:28;;;;;;;6.20;5.30;;;;;;;;;;4949424;28;20236;-85
2023/11/26 06:17:54;;;;;;;5.67;5.10;;;;;;;;;;4944923;28;20241;-85
2023/11/26 06:20:19;;;;;;;5.60;5.13;;;;;;;;;;4956039;28;20281;-87
2023/11/26 06:22:49;;;;;;;6.23;5.70;;;;;;;;;;4950405;28;20305;-85
2023/11/26 06:25:15;;;;;;;6.00;5.10;;;;;;;;;;4945406;28;21086;-85
2023/11/26 06:27:43;;;;;;;6.67;5.57;;;;;;;;;;4937106;28;20230;-86
2023/11/26 06:30:09;;;;;;;6.03;5.43;;;;;;;;;;4953721;28;20233;-86
2023/11/26 06:32:36;;;;;;;6.13;5.53;;;;;;;;;;4932922;29;20285;-88
2023/11/26 06:35:02;;;;;;;5.90;5.30;;;;;;;;;;4951678;28;20254;-87
2023/11/26 06:37:35;;;;;;;5.57;5.07;;;;;;;;;;4943631;28;20227;-85
2023/11/26 06:40:05;;;;;;;5.90;5.17;;;;;;;;;;4938313;28;20245;-86
2023/11/26 06:42:39;;;;;;;7.47;4.97;;;;;;;;;;4951295;28;20715;-88
2023/11/26 06:45:05;;;;;;;5.73;5.27;;;;;;;;;;4938458;28;20241;-87
2023/11/26 06:47:30;;;;;;;5.33;4.93;;;;;;;;;;4932282;28;20215;-87
2023/11/26 06:49:57;;;;;;;6.40;5.67;;;;;;;;;;4957515;28;20901;-88
2023/11/26 06:52:22;;;;;;;6.50;5.80;;;;;;;;;;4943441;28;20743;-88
2023/11/26 06:54:48;;;;;;;6.73;4.57;;;;;;;;;;4954532;28;20230;-83
2023/11/26 06:57:16;;;;;;;6.23;5.70;;;;;;;;;;4926327;28;20276;-88
2023/11/26 06:59:44;;;;;;;5.43;4.97;;;;;;;;;;4940983;28;20238;-87
2023/11/26 07:02:10;;;;;;;6.93;5.40;;;;;;;;;;4935430;28;20226;-87
2023/11/26 07:04:36;;;;;;;8.10;5.77;;;;;;;;;;4939058;28;20234;-88
2023/11/26 07:07:01;;;;;;;6.50;5.90;;;;;;;;;;4951326;28;20301;-87
2023/11/26 07:09:27;;;;;;;6.47;5.57;;;;;;;;;;4939635;28;20307;-88
2023/11/26 07:11:53;;;;;;;7.17;5.63;;;;;;;;;;4955248;28;20971;-87
2023/11/26 07:14:22;;;;;;;5.77;5.27;;;;;;;;;;4933704;28;20230;-89
2023/11/26 07:16:54;;;;;;;5.53;5.03;;;;;;;;;;4966728;28;20214;-83
2023/11/26 07:19:20;;;;;;;6.07;5.20;;;;;;;;;;4968621;28;20218;-88
2023/11/26 07:21:46;;;;;;;5.63;5.13;;;;;;;;;;4929590;28;20262;-87
2023/11/26 07:24:12;;;;;;;5.50;5.00;;;;;;;;;;4952339;28;20222;-88
2023/11/26 07:26:37;;;;;;;7.20;5.43;;;;;;;;;;4934940;28;20302;-87
2023/11/26 07:29:05;;;;;;;5.70;5.10;;;;;;;;;;4941714;28;20226;-87
2023/11/26 07:31:36;;;;;;;5.60;5.20;;;;;;;;;;4963957;28;20225;-87
2023/11/26 07:34:01;;;;;;;5.43;5.00;;;;;;;;;;4956827;28;20227;-88
2023/11/26 07:36:27;;;;;;;5.77;5.27;;;;;;;;;;4940502;28;20230;-89
2023/11/26 07:38:55;;;;;;;6.23;5.60;;;;;;;;;;4962781;28;20286;-86
2023/11/26 07:41:21;;;;;;;5.93;5.43;;;;;;;;;;4941387;28;20222;-87
2023/11/26 07:43:49;;;;;;;8.40;6.27;;;;;;;;;;4942516;28;20299;-88
2023/11/26 07:46:17;;;;;;;5.53;5.03;;;;;;;;;;4939875;28;20217;-85
2023/11/26 07:48:45;;;;;;;5.63;5.13;;;;;;;;;;4934451;28;20277;-86
2023/11/26 07:51:13;;;;;;;5.90;5.33;;;;;;;;;;4936032;28;20950;-85
2023/11/26 07:53:39;;;;;;;6.83;5.63;;;;;;;;;;4925446;28;20300;-89
2023/11/26 07:56:08;;;;;;;5.97;5.43;;;;;;;;;;4956653;28;20230;-85
2023/11/26 07:58:33;;;;;;;7.63;6.20;;;;;;;;;;4948983;28;20765;-84
2023/11/26 08:01:02;;;;;;;6.70;5.43;;;;;;;;;;4951444;28;20231;-86
2023/11/26 08:03:31;;;;;;;10.07;8.60;;;;;;;;;;4954149;28;20228;-86
2023/11/26 08:06:00;;;;;;;6.67;6.10;;;;;;;;;;4958973;28;20231;-85
2023/11/26 08:08:35;;;;;;;5.70;5.10;;;;;;;;;;4942801;28;20748;-87
2023/11/26 08:11:00;;;;;;;6.23;5.63;;;;;;;;;;4965064;28;20214;-84
2023/11/26 08:13:29;;;;;;;5.53;5.10;;;;;;;;;;4980391;28;20222;-81
2023/11/26 08:15:57;;;;;;;5.47;4.90;;;;;;;;;;4981380;28;20237;-81
2023/11/26 08:18:25;;;;;;;5.90;5.37;;;;;;;;;;4965464;28;21568;-81
2023/11/26 08:20:54;;;;;;;5.27;4.77;;;;;;;;;;4974192;28;20210;-81
2023/11/26 08:23:19;;;;;;;5.37;4.97;;;;;;;;;;4971551;28;20274;-82
2023/11/26 08:25:45;;;;;;;6.33;5.83;;;;;;;;;;4981313;28;20226;-82
2023/11/26 08:28:14;;;;;;;7.33;6.63;;;;;;;;;;4956920;28;20210;-83
2023/11/26 08:30:41;;;;;;;11.03;8.50;;;;;;;;;;4944160;28;20232;-81
2023/11/26 08:33:12;;;;;;;8.63;7.83;;;;;;;;;;4963629;28;20211;-83
2023/11/26 08:35:40;;;;;;;8.80;5.67;;;;;;;;;;4935165;28;20285;-84
2023/11/26 08:38:06;;;;;;;8.43;5.80;;;;;;;;;;4953239;28;20498;-83
2023/11/26 08:40:38;;;;;;;5.27;4.87;;;;;;;;;;4933163;28;20314;-84
2023/11/26 08:43:09;;;;;;;5.93;4.60;;;;;;;;;;4951895;28;20234;-85
2023/11/26 08:45:41;;;;;;;4.83;4.33;;;;;;;;;;4934654;28;20325;-84
2023/11/26 08:48:07;;;;;;;5.87;4.20;;;;;;;;;;4950410;28;20642;-82
2023/11/26 08:50:35;;;;;;;4.40;3.90;;;;;;;;;;4945150;28;20222;-82
2023/11/26 08:53:05;;;;;;;4.43;4.03;;;;;;;;;;4951489;28;20234;-84
2023/11/26 08:55:33;;;;;;;5.80;4.33;;;;;;;;;;4955952;28;20222;-84
2023/11/26 08:57:59;;;;;;;4.50;4.10;;;;;;;;;;4937054;28;20588;-83
2023/11/26 09:00:25;;;;;;;4.17;3.83;;;;;;;;;;4936838;28;20222;-83
2023/11/26 09:02:55;;;;;;;5.23;3.60;;;;;;;;;;4952335;28;20224;-84
2023/11/26 09:05:21;;;;;;;5.50;3.87;;;;;;;;;;4932786;28;20218;-83
2023/11/26 09:07:47;;;;;;;4.23;3.83;;;;;;;;;;4936469;28;20710;-84
2023/11/26 09:10:13;;;;;;;4.17;3.87;;;;;;;;;;4951117;28;20241;-82
2023/11/26 09:12:39;;;;;;;4.57;3.60;;;;;;;;;;4954618;28;20246;-83
2023/11/26 09:15:10;;;;;;;4.17;3.57;;;;;;;;;;4964021;28;20245;-81
2023/11/26 09:17:37;;;;;;;4.23;3.87;;;;;;;;;;4941572;28;20269;-84
2023/11/26 09:20:11;;;;;;;4.00;3.60;;;;;;;;;;4934123;28;20239;-82
2023/11/26 09:22:40;;;;;;;3.50;3.23;;;;;;;;;;4930595;28;20309;-85
2023/11/26 09:25:14;;;;;;;5.90;3.63;;;;;;;;;;4955653;28;20221;-83
2023/11/26 09:27:42;;;;;;;3.80;3.50;;;;;;;;;;4958440;28;20309;-80
2023/11/26 09:30:08;;;;;;;4.63;3.43;;;;;;;;;;4959673;28;20218;-84
2023/11/26 09:32:34;;;;;;;7.43;5.87;;;;;;;;;;4947272;28;20222;-85
2023/11/26 09:35:04;;;;;;;4.43;3.77;;;;;;;;;;4949966;28;20234;-84
2023/11/26 09:37:30;;;;;;;3.20;3.00;;;;;;;;;;4933197;29;20793;-85
2023/11/26 09:39:57;;;;;;;3.33;3.03;;;;;;;;;;4964616;28;20225;-85
2023/11/26 09:42:26;;;;;;;3.97;3.57;;;;;;;;;;4939670;28;20230;-85
2023/11/26 09:44:52;;;;;;;4.57;3.57;;;;;;;;;;4962685;28;20235;-86
2023/11/26 09:47:18;;;;;;;3.73;3.40;;;;;;;;;;4955616;28;20301;-82
2023/11/26 09:49:47;;;;;;;4.47;3.20;;;;;;;;;;4961039;29;20293;-83
2023/11/26 09:52:14;;;;;;;4.23;3.83;;;;;;;;;;4944026;28;20542;-86
2023/11/26 09:54:40;;;;;;;4.00;3.60;;;;;;;;;;4942781;28;20315;-85
2023/11/26 09:57:06;;;;;;;5.73;5.10;;;;;;;;;;4953947;28;20225;-83
2023/11/26 09:59:33;;;;;;;5.77;3.23;;;;;;;;;;4947819;28;20957;-85
2023/11/26 10:01:59;;;;;;;4.67;3.30;;;;;;;;;;4944441;28;20230;-85
2023/11/26 10:04:28;;;;;;;5.37;3.07;;;;;;;;;;4954275;28;20234;-83
2023/11/26 10:06:57;;;;;;;4.00;3.10;;;;;;;;;;4950472;28;20317;-82
2023/11/26 10:09:24;;;;;;;3.30;3.00;;;;;;;;;;4949160;28;20643;-81
2023/11/26 10:11:55;;;;;;;3.93;2.90;;;;;;;;;;4960674;28;20233;-82
2023/11/26 10:14:21;;;;;;;3.07;2.70;;;;;;;;;;4961260;28;20237;-83
2023/11/26 10:16:49;;;;;;;3.77;2.90;;;;;;;;;;4944682;28;20238;-81
2023/11/26 10:19:25;;;;;;;4.03;2.73;;;;;;;;;;4953652;28;20756;-81
2023/11/26 10:22:00;;;;;;;5.20;3.13;;;;;;;;;;4973475;28;20226;-83
2023/11/26 10:24:30;;;;;;;2.63;2.40;;;;;;;;;;4932733;28;20225;-81
2023/11/26 10:26:57;;;;;;;3.50;2.90;;;;;;;;;;4954066;28;20226;-82
2023/11/26 10:29:28;;;;;;;3.73;2.93;;;;;;;;;;4937653;28;20298;-83
2023/11/26 10:32:04;;;;;;;4.17;2.80;;;;;;;;;;4973059;28;20853;-81
2023/11/26 10:34:36;;;;;;;3.40;3.10;;;;;;;;;;4954966;28;20415;-83
2023/11/26 10:37:19;;;;;;;5.53;3.07;;;;;;;;;;4948238;28;20230;-82
2023/11/26 10:39:45;;;;;;;3.40;3.10;;;;;;;;;;4936440;28;20308;-82
2023/11/26 10:42:13;;;;;;;3.60;3.13;;;;;;;;;;4951155;28;20217;-82
2023/11/26 10:44:40;;;;;;;4.37;3.20;;;;;;;;;;4941641;28;20218;-82
2023/11/26 10:47:05;;;;;;;4.30;3.03;;;;;;;;;;4952798;28;20684;-83
2023/11/26 10:49:42;;;;;;;4.50;4.10;;;;;;;;;;4937011;28;20222;-83
2023/11/26 10:52:27;;;;;;;7.03;6.33;;;;;;;;;;4970202;28;20289;-82
2023/11/26 10:55:21;;;;;;;4.63;3.73;;;;;;;;;;4965950;28;20242;-84
2023/11/26 10:57:49;;;;;;;3.83;3.43;;;;;;;;;;4956643;28;20214;-82
2023/11/26 11:00:21;;;;;;;3.90;3.53;;;;;;;;;;4950728;28;20214;-83
2023/11/26 11:02:49;;;;;;;5.50;3.80;;;;;;;;;;4970039;28;20234;-84
2023/11/26 11:05:20;;;;;;;8.23;4.10;;;;;;;;;;4936179;28;20222;-83
2023/11/26 11:07:45;;;;;;;5.00;4.60;;;;;;;;;;4947947;28;20250;-84
2023/11/26 11:10:13;;;;;;;6.13;4.37;;;;;;;;;;4935819;28;20226;-85
2023/11/26 11:12:50;;;;;;;6.33;4.60;;;;;;;;;;4982582;28;20246;-84
2023/11/26 11:15:16;;;;;;;6.30;4.47;;;;;;;;;;4955591;28;20231;-84
2023/11/26 11:17:41;;;;;;;5.10;4.60;;;;;;;;;;4942001;28;20641;-84
2023/11/26 11:20:07;;;;;;;5.80;5.20;;;;;;;;;;4936621;28;20203;-84
2023/11/26 11:22:34;;;;;;;5.60;5.07;;;;;;;;;;4965785;28;20230;-84
2023/11/26 11:25:13;;;;;;;5.37;4.83;;;;;;;;;;4954549;28;20236;-83
2023/11/26 11:28:00;;;;;;;7.43;4.60;;;;;;;;;;4941383;28;20226;-82
2023/11/26 11:30:31;;;;;;;5.40;5.00;;;;;;;;;;4949109;28;20223;-84
2023/11/26 11:33:12;;;;;;;6.70;5.23;;;;;;;;;;4981245;28;20262;-83
2023/11/26 11:35:47;;;;;;;5.70;5.20;;;;;;;;;;4927399;28;20306;-82
2023/11/26 11:38:15;;;;;;;5.33;4.83;;;;;;;;;;4971946;28;20616;-84
2023/11/26 11:41:09;;;;;;;6.47;5.23;;;;;;;;;;4944505;28;20222;-84
2023/11/26 11:43:39;;;;;;;6.13;5.53;;;;;;;;;;4956933;28;20202;-83
2023/11/26 11:46:26;;;;;;;6.10;5.20;;;;;;;;;;4963353;28;20234;-86
2023/11/26 11:48:58;;;;;;;9.50;6.00;;;;;;;;;;4984516;28;20230;-85
2023/11/26 11:51:32;;;;;;;8.07;5.53;;;;;;;;;;4953931;28;20230;-85
2023/11/26 11:54:10;;;;;;;5.80;4.80;;;;;;;;;;4978419;28;20231;-84
2023/11/26 11:56:37;;;;;;;5.93;5.33;;;;;;;;;;4961583;28;20230;-83
2023/11/26 11:59:02;;;;;;;6.63;5.23;;;;;;;;;;4943145;28;20214;-85
2023/11/26 12:01:28;;;;;;;7.63;6.13;;;;;;;;;;4954353;28;20297;-85
2023/11/26 12:03:53;;;;;;;12.47;10.50;;;;;;;;;;4965143;28;20289;-86
2023/11/26 12:06:23;;;;;;;7.83;7.13;;;;;;;;;;4946070;28;20257;-86
2023/11/26 12:09:01;;;;;;;7.23;6.53;;;;;;;;;;4967042;28;20226;-86
2023/11/26 12:11:27;;;;;;;8.80;7.90;;;;;;;;;;4956638;28;20226;-86
2023/11/26 12:13:53;;;;;;;7.10;6.40;;;;;;;;;;4944124;28;20362;-85
2023/11/26 12:16:19;;;;;;;8.33;6.50;;;;;;;;;;4935776;28;20735;-86
2023/11/26 12:18:45;;;;;;;6.40;5.80;;;;;;;;;;4939793;28;20222;-86
2023/11/26 12:21:15;;;;;;;6.80;6.10;;;;;;;;;;4957775;28;20226;-85
2023/11/26 12:23:43;;;;;;;7.33;6.60;;;;;;;;;;4956290;28;20311;-85
2023/11/26 12:26:08;;;;;;;6.57;5.97;;;;;;;;;;4953989;28;20222;-84
2023/11/26 12:28:44;;;;;;;6.97;5.70;;;;;;;;;;4939032;28;20215;-87
2023/11/26 12:31:10;;;;;;;6.50;5.60;;;;;;;;;;4926833;28;20202;-78
2023/11/26 12:33:43;;;;;;;5.80;5.13;;;;;;;;;;4953632;28;21003;-84
2023/11/26 12:36:14;;;;;;;6.07;5.47;;;;;;;;;;4953572;28;20223;-83
2023/11/26 12:38:41;;;;;;;5.53;5.03;;;;;;;;;;4956669;28;20308;-85
2023/11/26 12:41:10;;;;;;;6.77;5.40;;;;;;;;;;4933647;28;20222;-81
2023/11/26 12:43:39;;;;;;;9.40;5.67;;;;;;;;;;4959884;28;20234;-80
2023/11/26 12:46:10;;;;;;;6.03;5.53;;;;;;;;;;4963361;28;20314;-80
2023/11/26 12:48:41;;;;;;;5.53;5.03;;;;;;;;;;4970134;28;20256;-81
2023/11/26 12:51:09;;;;;;;7.37;5.83;;;;;;;;;;4949135;28;20246;-81
2023/11/26 12:53:34;;;;;;;5.83;5.33;;;;;;;;;;4933381;28;20754;-79
2023/11/26 12:56:05;;;;;;;6.03;5.30;;;;;;;;;;4953905;28;20229;-80
2023/11/26 12:58:31;;;;;;;6.63;6.03;;;;;;;;;;4950321;28;20326;-80
2023/11/26 13:00:57;;;;;;;6.27;5.70;;;;;;;;;;4959556;28;20214;-80
2023/11/26 13:03:22;;;;;;;6.77;5.70;;;;;;;;;;4937127;28;20226;-81
2023/11/26 13:05:48;;;;;;;6.47;5.80;;;;;;;;;;4966602;28;20295;-80
2023/11/26 13:08:20;;;;;;;6.90;6.30;;;;;;;;;;4949592;28;20229;-80
2023/11/26 13:10:52;;;;;;;10.70;6.73;;;;;;;;;;4966944;28;20226;-80
2023/11/26 13:13:31;;;;;;;8.97;6.60;;;;;;;;;;4960209;28;20229;-79
2023/11/26 13:15:58;;;;;;;6.87;6.13;;;;;;;;;;4948201;28;20229;-80
2023/11/26 13:18:25;;;;;;;6.97;6.27;;;;;;;;;;4967031;28;20222;-79
2023/11/26 13:20:51;;;;;;;7.63;5.50;;;;;;;;;;4950527;28;20642;-80
2023/11/26 13:23:20;;;;;;;6.47;5.60;;;;;;;;;;4958407;28;20867;-80
2023/11/26 13:25:51;;;;;;;6.63;5.97;;;;;;;;;;4950857;28;20296;-80
2023/11/26 13:28:17;;;;;;;5.97;5.30;;;;;;;;;;4965001;28;20226;-79
2023/11/26 13:30:43;;;;;;;7.67;6.33;;;;;;;;;;4952031;28;20230;-79
2023/11/26 13:33:09;;;;;;;6.93;6.23;;;;;;;;;;4946379;28;20596;-80
2023/11/26 13:35:38;;;;;;;8.97;6.83;;;;;;;;;;4956292;28;20226;-80
2023/11/26 13:38:07;;;;;;;9.20;6.60;;;;;;;;;;4957167;28;20225;-81
2023/11/26 13:40:39;;;;;;;10.80;6.60;;;;;;;;;;4940632;28;20217;-81
2023/11/26 13:43:08;;;;;;;8.03;5.70;;;;;;;;;;4944474;28;20224;-79
2023/11/26 13:45:37;;;;;;;6.27;5.73;;;;;;;;;;4929693;28;20218;-79
2023/11/26 13:48:05;;;;;;;6.40;5.80;;;;;;;;;;4954517;28;20213;-79
2023/11/26 13:50:31;;;;;;;6.37;5.77;;;;;;;;;;4932461;28;20290;-80
2023/11/26 13:52:59;;;;;;;6.03;5.53;;;;;;;;;;4929867;28;20319;-79
2023/11/26 13:55:27;;;;;;;6.53;5.80;;;;;;;;;;4958961;28;20229;-79
2023/11/26 13:57:52;;;;;;;7.13;6.43;;;;;;;;;;4958749;28;20211;-81
2023/11/26 14:00:21;;;;;;;11.17;5.93;;;;;;;;;;4952321;28;20226;-79
2023/11/26 14:02:53;;;;;;;8.70;6.17;;;;;;;;;;4962860;28;20248;-81
2023/11/26 14:05:19;;;;;;;6.20;5.57;;;;;;;;;;4958031;28;20250;-81
2023/11/26 14:07:51;;;;;;;9.63;6.43;;;;;;;;;;4936191;28;20233;-79
2023/11/26 14:10:20;;;;;;;6.60;5.93;;;;;;;;;;4949579;28;20221;-81
2023/11/26 14:12:46;;;;;;;6.60;6.00;;;;;;;;;;4946644;28;20313;-80
2023/11/26 14:15:14;;;;;;;8.30;6.60;;;;;;;;;;4922401;28;20221;-80
2023/11/26 14:17:41;;;;;;;10.40;6.00;;;;;;;;;;4976389;28;20241;-81
2023/11/26 14:20:07;;;;;;;11.73;6.43;;;;;;;;;;4953542;28;20789;-80
2023/11/26 14:22:35;;;;;;;9.37;6.80;;;;;;;;;;4930636;28;20296;-80
2023/11/26 14:25:00;;;;;;;7.20;6.20;;;;;;;;;;4952636;28;20234;-80
2023/11/26 14:27:26;;;;;;;9.47;6.30;;;;;;;;;;4960056;28;20229;-79
2023/11/26 14:29:51;;;;;;;7.93;5.90;;;;;;;;;;4959992;28;20647;-80
2023/11/26 14:32:17;;;;;;;15.63;7.20;;;;;;;;;;4945912;28;20222;-80
2023/11/26 14:34:43;;;;;;;9.13;6.83;;;;;;;;;;4945197;28;20249;-80
2023/11/26 14:37:09;;;;;;;12.50;7.40;;;;;;;;;;4959251;28;20219;-80
2023/11/26 14:39:38;;;;;;;10.07;7.27;;;;;;;;;;4967290;28;20268;-80
2023/11/26 14:42:04;;;;;;;10.90;7.20;;;;;;;;;;4950848;28;20218;-80
2023/11/26 14:44:30;;;;;;;11.03;7.90;;;;;;;;;;4930634;28;20227;-79
2023/11/26 14:46:56;;;;;;;14.17;7.57;;;;;;;;;;4914932;28;20302;-79
2023/11/26 14:49:22;;;;;;;11.63;8.20;;;;;;;;;;4946462;28;20211;-80
2023/11/26 14:51:47;;;;;;;9.47;7.70;;;;;;;;;;4943945;28;20345;-80
2023/11/26 14:54:15;;;;;;;16.27;8.67;;;;;;;;;;4945526;28;20210;-80
2023/11/26 14:56:41;;;;;;;13.00;8.57;;;;;;;;;;4944179;28;20230;-80